Airborne Airpark
KILN : now visible

Airfield :











YOU CAN JOIN US ON...

 
LOGIN :

Register | Disclaimer

   EN    FR    IT 

 









Legend :    VFR   Marginal VFR   IFR   Intensive IFR   Very Intensive IFR
Visi :
Ceiling :
>= 8 km
>= 3000ft
5 to 8 km
1000 to 3000 ft
1500m to 5 km
500 to 1000 ft
800 to 1500m
200 to 500 ft
< 800m
< 200 ft
Symbols :   Thunderstorms  Fog  Heavy snow  Heavy precipitations  Wind > 20 kt






- Airport Elevation : 1077 ft


KILN - Airborne Airpark

CURRENT METAR :
  • 181054Z AUTO 14009KT 4SM -FZRA BR OVC035 00/M01 A3009 RMK AO2 UPB10E29FZRAE10B29 SLP215 P0015 I1006 T00001011

EXPIRED METARs :
  • 181035Z AUTO 15009KT 4SM FZRA BR OVC036 00/M02 A3011 RMK AO2 UPB10E29FZRAE10B29 P0011 I1003 T00001017
  • 181016Z AUTO 14010KT 4SM UP BR OVC039 00/M02 A3011 RMK AO2 UPB10FZRAE10 P0006 I1001 T00001022
  • 181002Z AUTO 14010KT 4SM FZRA BR OVC040 M01/M03 A3012 RMK AO2 P0002 I1001 T10061028
  • 180954Z AUTO 15009KT 6SM -FZRA BR OVC040 M01/M03 A3013 RMK AO2 SLP229 P0008 I1006 T10061028
  • 180921Z AUTO 14009KT 6SM -FZRA OVC045 M01/M03 A3015 RMK AO2 P0005 I1003 T10061033
  • 180854Z AUTO 13013KT 6SM FZRA FEW035 OVC047 M01/M04 A3017 RMK AO2 UPB07E16B38E41FZRAE0758B16E38B41 SLP245 P0003 60004 I1002 I3003 T10061044 58039
  • 180822Z AUTO 14009KT 8SM -FZRA FEW038 BKN055 OVC070 M01/M05 A3021 RMK AO2 UPB07E16FZRAE0758B16 P0000 I1001 T10061050

TAF KILN
Valid from the 18 at 08:00 until the 19 at 06:00 UTC


180801Z 1808/1906 13011KT P6SM -FZRA OVC050
FM181100 15013KT P6SM -RA OVC040
FM181400 18015KT 3SM -RA BR OVC035
FM181500 18016G24KT 3SM -RA BR OVC015
FM181600 19018G28KT 1 1/2SM -RA BR OVC008
FM181900 22021G30KT 5SM BR VCSH OVC008
FM182200 24021G28KT P6SM OVC012



MET'MAP, your aeronautical weather chart ! - Copyright ORBIFLY December 2007 - Disclaimer

ORBIFLY MET'MAP TEAM :

Programming & Development : Alexandra Zaïnal
Concept & original design : Baudouin d'Aumeries
Assistance for programming : Marc-Olivier Méhu
Technical & hardware support : Manuel Goepfert

Contact : metmap@orbifly.com




SOURCES & CREDITS :

   NOAA       Earth
Advisory